Terminal Aerodrome Forecast
Issued by NWS Louisville, KY

Home | Current Version | Previous Version | Text Only | Print | Product List | Glossary On
Versions: 1 2 3 4 5 6 7 8 9 10 11 12 13 14
000
FTUS43 KLMK 182300
TAFBWG
TAF
KBWG 182320Z 1900/1924 35005KT P6SM OVC045
     FM190400 VRB03KT P6SM SCT040 SCT250
     FM191000 VRB03KT 5SM BR SKC
     FM191300 VRB04KT P6SM SKC=

USA.gov is the U.S. government's official web portal to all federal, state and local government web resources and services.